createdAt,value
2016-06-05T00:00:07.227Z,19.7
2016-06-05T00:00:17.211Z,19.7
2016-06-05T00:00:27.211Z,19.7
2016-06-05T00:00:37.211Z,19.7
2016-06-05T00:00:47.214Z,19.7
2016-06-05T00:00:57.214Z,19.7
2016-06-05T00:01:07.214Z,19.7
2016-06-05T00:01:17.198Z,19.7
2016-06-05T00:01:27.183Z,19.7
2016-06-05T00:01:37.183Z,19.7
2016-06-05T00:01:47.186Z,19.7
2016-06-05T00:01:57.186Z,19.7
2016-06-05T00:02:07.170Z,19.6
2016-06-05T00:02:17.155Z,19.6
2016-06-05T00:02:27.155Z,19.6
2016-06-05T00:02:37.155Z,19.6
2016-06-05T00:02:47.157Z,19.6
2016-06-05T00:02:57.157Z,19.6
2016-06-05T00:03:07.141Z,19.6
2016-06-05T00:03:17.141Z,19.6
2016-06-05T00:03:27.141Z,19.6
2016-06-05T00:03:37.125Z,19.6
2016-06-05T00:03:47.128Z,19.6
2016-06-05T00:03:57.128Z,19.6
2016-06-05T00:04:07.113Z,19.6
2016-06-05T00:04:17.128Z,19.6
2016-06-05T00:04:27.097Z,19.6
2016-06-05T00:04:37.097Z,19.6
2016-06-05T00:04:47.116Z,19.6
2016-06-05T00:04:57.084Z,19.6
2016-06-05T00:05:07.084Z,19.6
2016-06-05T00:05:17.084Z,19.6
2016-06-05T00:05:27.084Z,19.6
2016-06-05T00:05:37.084Z,19.6
2016-06-05T00:05:47.072Z,19.6
2016-06-05T00:05:57.072Z,19.6
2016-06-05T00:06:07.056Z,19.6
2016-06-05T00:06:17.056Z,19.6
2016-06-05T00:06:27.056Z,19.6
2016-06-05T00:06:37.041Z,19.6
2016-06-05T00:06:46.886Z,19.6
2016-06-05T00:06:57.027Z,19.6
2016-06-05T00:07:07.027Z,19.6
2016-06-05T00:07:17.027Z,19.6
2016-06-05T00:07:27.027Z,19.6
2016-06-05T00:07:37.027Z,19.6
2016-06-05T00:07:47.013Z,19.6
2016-06-05T00:07:57.029Z,19.6
2016-06-05T00:08:06.998Z,19.6
2016-06-05T00:08:17.013Z,19.6
2016-06-05T00:08:26.982Z,19.6
2016-06-05T00:08:36.982Z,19.6
2016-06-05T00:08:46.986Z,19.6
2016-06-05T00:08:56.986Z,19.6
2016-06-05T00:09:06.986Z,19.6
2016-06-05T00:09:16.986Z,19.6
2016-06-05T00:09:26.970Z,19.6
2016-06-05T00:09:36.970Z,19.6
2016-06-05T00:09:46.988Z,19.6
2016-06-05T00:09:56.957Z,19.6
2016-06-05T00:10:06.957Z,19.6
2016-06-05T00:10:16.957Z,19.6
2016-06-05T00:10:26.941Z,19.6
2016-06-05T00:10:36.941Z,19.6
2016-06-05T00:10:46.944Z,19.6
2016-06-05T00:10:56.929Z,19.6
2016-06-05T00:11:06.929Z,19.6
2016-06-05T00:11:16.929Z,19.6
2016-06-05T00:11:26.929Z,19.6
2016-06-05T00:11:36.913Z,19.5
2016-06-05T00:11:46.916Z,19.6
2016-06-05T00:11:56.760Z,19.5
2016-06-05T00:12:06.900Z,19.5
2016-06-05T00:12:16.900Z,19.5
2016-06-05T00:12:27.010Z,19.5
2016-06-05T00:12:36.900Z,19.5
2016-06-05T00:12:47.106Z,19.5
2016-06-05T00:12:57.060Z,19.5
2016-06-05T00:13:07.356Z,19.5
2016-06-05T00:13:17.013Z,19.5
2016-06-05T00:13:26.888Z,19.5
2016-06-05T00:13:37.325Z,19.5
2016-06-05T00:13:46.858Z,19.5
2016-06-05T00:13:56.858Z,19.5
2016-06-05T00:14:06.843Z,19.5
2016-06-05T00:14:16.843Z,19.5
2016-06-05T00:14:26.843Z,19.5
2016-06-05T00:14:36.843Z,19.5
2016-06-05T00:14:46.845Z,19.5
2016-06-05T00:14:56.829Z,19.5
2016-06-05T00:15:06.814Z,19.5
2016-06-05T00:15:16.814Z,19.5
2016-06-05T00:15:26.814Z,19.5
2016-06-05T00:15:36.814Z,19.5
2016-06-05T00:15:46.832Z,19.5
2016-06-05T00:15:56.801Z,19.5
2016-06-05T00:16:06.645Z,19.5
2016-06-05T00:16:16.785Z,19.5
2016-06-05T00:16:26.785Z,19.5
2016-06-05T00:16:36.785Z,19.5
2016-06-05T00:16:46.773Z,19.5
2016-06-05T00:16:56.773Z,19.5
2016-06-05T00:17:06.773Z,19.5
2016-06-05T00:17:16.773Z,19.5
2016-06-05T00:17:26.757Z,19.5
2016-06-05T00:17:36.757Z,19.5
2016-06-05T00:17:46.760Z,19.5
2016-06-05T00:17:56.760Z,19.5
2016-06-05T00:18:06.744Z,19.5
2016-06-05T00:18:16.744Z,19.5
2016-06-05T00:18:26.588Z,19.5
2016-06-05T00:18:48.560Z,19.5
2016-06-05T00:18:54.576Z,19.5
2016-06-05T00:19:04.576Z,19.5
2016-06-05T00:19:14.576Z,19.5
2016-06-05T00:19:24.435Z,19.5
2016-06-05T00:19:34.560Z,19.5
2016-06-05T00:19:44.560Z,19.5
2016-06-05T00:19:54.562Z,19.5
2016-06-05T00:20:04.406Z,19.5
2016-06-05T00:20:14.546Z,19.5
2016-06-05T00:20:24.546Z,19.5
2016-06-05T00:20:34.531Z,19.5
2016-06-05T00:20:44.531Z,19.5
2016-06-05T00:20:54.534Z,19.5
2016-06-05T00:21:04.534Z,19.5
2016-06-05T00:21:14.518Z,19.5
2016-06-05T00:21:24.518Z,19.5
2016-06-05T00:21:34.502Z,19.5
2016-06-05T00:21:44.502Z,19.5
2016-06-05T00:21:54.505Z,19.5
2016-06-05T00:22:04.505Z,19.5
2016-06-05T00:22:14.349Z,19.5
2016-06-05T00:22:24.490Z,19.5
2016-06-05T00:22:34.490Z,19.5
2016-06-05T00:22:44.490Z,19.5
2016-06-05T00:22:54.476Z,19.5
2016-06-05T00:23:04.476Z,19.5
2016-06-05T00:23:14.461Z,19.5
2016-06-05T00:23:24.461Z,19.5
2016-06-05T00:23:34.461Z,19.5
2016-06-05T00:23:44.461Z,19.5
2016-06-05T00:23:54.448Z,19.5
2016-06-05T00:24:04.448Z,19.5
2016-06-05T00:24:14.432Z,19.4
2016-06-05T00:24:24.432Z,19.4
2016-06-05T00:24:34.432Z,19.4
2016-06-05T00:24:44.432Z,19.5
2016-06-05T00:24:54.451Z,19.4
2016-06-05T00:25:04.435Z,19.4
2016-06-05T00:25:14.420Z,19.5
2016-06-05T00:25:24.420Z,19.4
2016-06-05T00:25:34.404Z,19.4
2016-06-05T00:25:44.420Z,19.4
2016-06-05T00:25:54.423Z,19.4
2016-06-05T00:26:04.391Z,19.4
2016-06-05T00:26:14.438Z,19.4
2016-06-05T00:26:24.391Z,19.4
2016-06-05T00:26:34.391Z,19.4
2016-06-05T00:26:44.391Z,19.4
2016-06-05T00:26:54.378Z,19.4
2016-06-05T00:27:04.378Z,19.4
2016-06-05T00:27:14.378Z,19.4
2016-06-05T00:27:24.362Z,19.4
2016-06-05T00:27:35.159Z,19.4
2016-06-05T00:27:44.315Z,19.4
2016-06-05T00:27:54.350Z,19.4
2016-06-05T00:28:04.350Z,19.4
2016-06-05T00:28:14.850Z,19.4
2016-06-05T00:28:24.834Z,19.4
2016-06-05T00:28:34.365Z,19.4
2016-06-05T00:28:44.334Z,19.4
2016-06-05T00:28:54.320Z,19.4
2016-06-05T00:29:04.320Z,19.4
2016-06-05T00:29:14.305Z,19.4
2016-06-05T00:29:24.305Z,19.4
2016-06-05T00:29:34.305Z,19.4
2016-06-05T00:29:44.305Z,19.4
2016-06-05T00:29:54.308Z,19.4
2016-06-05T00:30:04.276Z,19.4
2016-06-05T00:30:14.276Z,19.4
2016-06-05T00:30:24.276Z,19.4
2016-06-05T00:30:34.276Z,19.4
2016-06-05T00:30:44.276Z,19.4
2016-06-05T00:30:54.264Z,19.4
2016-06-05T00:31:04.264Z,19.4
2016-06-05T00:31:14.264Z,19.4
2016-06-05T00:31:24.248Z,19.4
2016-06-05T00:31:34.264Z,19.4
2016-06-05T00:31:44.248Z,19.4
2016-06-05T00:31:54.235Z,19.4
2016-06-05T00:32:04.219Z,19.4
2016-06-05T00:32:14.094Z,19.4
2016-06-05T00:32:24.219Z,19.4
2016-06-05T00:32:34.219Z,19.4
2016-06-05T00:32:44.219Z,19.4
2016-06-05T00:32:54.206Z,19.4
2016-06-05T00:33:04.206Z,19.4
2016-06-05T00:33:14.206Z,19.4
2016-06-05T00:33:24.034Z,19.4
2016-06-05T00:33:34.050Z,19.4
2016-06-05T00:33:44.175Z,19.4
2016-06-05T00:33:54.178Z,19.4
2016-06-05T00:34:04.178Z,19.4
2016-06-05T00:34:14.178Z,19.4
2016-06-05T00:34:24.162Z,19.4
2016-06-05T00:34:34.178Z,19.4
2016-06-05T00:34:44.178Z,19.4
2016-06-05T00:34:54.149Z,19.4
2016-06-05T00:35:04.149Z,19.4
2016-06-05T00:35:14.149Z,19.4
2016-06-05T00:35:24.133Z,19.4
2016-06-05T00:35:34.149Z,19.4
2016-06-05T00:35:44.133Z,19.4
2016-06-05T00:35:54.136Z,19.4
2016-06-05T00:36:04.136Z,19.4
2016-06-05T00:36:14.121Z,19.4
2016-06-05T00:36:24.121Z,19.4
2016-06-05T00:36:34.105Z,19.4
2016-06-05T00:36:44.105Z,19.4
2016-06-05T00:36:54.108Z,19.4
2016-06-05T00:37:04.108Z,19.4
2016-06-05T00:37:14.108Z,19.4
2016-06-05T00:37:24.092Z,19.3
2016-06-05T00:37:34.092Z,19.4
2016-06-05T00:37:44.077Z,19.4
2016-06-05T00:37:54.080Z,19.4
2016-06-05T00:38:04.080Z,19.4
2016-06-05T00:38:14.064Z,19.3
2016-06-05T00:38:24.064Z,19.4
2016-06-05T00:38:34.048Z,19.4
2016-06-05T00:38:44.064Z,19.4
2016-06-05T00:38:54.050Z,19.4
2016-06-05T00:39:04.035Z,19.4
2016-06-05T00:39:14.050Z,19.4
2016-06-05T00:39:24.050Z,19.4
2016-06-05T00:39:34.035Z,19.3
2016-06-05T00:39:44.035Z,19.4
2016-06-05T00:39:54.022Z,19.4
2016-06-05T00:40:04.022Z,19.3
2016-06-05T00:40:14.022Z,19.4
2016-06-05T00:40:23.882Z,19.4
2016-06-05T00:40:34.007Z,19.4
2016-06-05T00:40:43.991Z,19.4
2016-06-05T00:40:53.994Z,19.4
2016-06-05T00:41:03.994Z,19.4
2016-06-05T00:41:13.978Z,19.4
2016-06-05T00:41:23.994Z,19.4
2016-06-05T00:41:33.994Z,19.4
2016-06-05T00:41:43.978Z,19.4
2016-06-05T00:41:54.184Z,19.4
2016-06-05T00:42:03.966Z,19.4
2016-06-05T00:42:13.981Z,19.4
2016-06-05T00:42:24.216Z,19.4
2016-06-05T00:42:34.184Z,19.4
2016-06-05T00:42:45.559Z,19.4
2016-06-05T00:42:53.811Z,19.4
2016-06-05T00:43:04.921Z,19.4
2016-06-05T00:43:13.936Z,19.4
2016-06-05T00:43:24.421Z,19.4
2016-06-05T00:43:34.640Z,19.4
2016-06-05T00:43:44.421Z,19.4
2016-06-05T00:43:53.923Z,19.4
2016-06-05T00:44:03.907Z,19.4
2016-06-05T00:44:13.907Z,19.4
2016-06-05T00:44:23.892Z,19.4
2016-06-05T00:44:33.892Z,19.4
2016-06-05T00:44:43.892Z,19.4
2016-06-05T00:44:53.896Z,19.4
2016-06-05T00:45:03.896Z,19.4
2016-06-05T00:45:13.896Z,19.4
2016-06-05T00:45:23.880Z,19.4
2016-06-05T00:45:33.864Z,19.4
2016-06-05T00:45:43.880Z,19.4
2016-06-05T00:45:53.866Z,19.4
2016-06-05T00:46:03.866Z,19.4
2016-06-05T00:46:13.851Z,19.4
2016-06-05T00:46:23.851Z,19.4
2016-06-05T00:46:33.851Z,19.4
2016-06-05T00:46:43.835Z,19.4
2016-06-05T00:46:53.837Z,19.4
2016-06-05T00:47:03.853Z,19.4
2016-06-05T00:47:13.821Z,19.4
2016-06-05T00:47:23.821Z,19.4
2016-06-05T00:47:33.821Z,19.4
2016-06-05T00:47:43.821Z,19.4
2016-06-05T00:47:53.809Z,19.4
2016-06-05T00:48:03.840Z,19.4
2016-06-05T00:48:13.809Z,19.4
2016-06-05T00:48:23.793Z,19.4
2016-06-05T00:48:33.793Z,19.4
2016-06-05T00:48:43.778Z,19.4
2016-06-05T00:48:53.781Z,19.4
2016-06-05T00:49:03.765Z,19.4
2016-06-05T00:49:13.781Z,19.4
2016-06-05T00:49:23.781Z,19.4
2016-06-05T00:49:33.765Z,19.4
2016-06-05T00:49:43.749Z,19.4
2016-06-05T00:49:53.768Z,19.4
2016-06-05T00:50:03.768Z,19.4
2016-06-05T00:50:13.752Z,19.4
2016-06-05T00:50:23.596Z,19.4
2016-06-05T00:50:33.737Z,19.4
2016-06-05T00:50:43.737Z,19.4
2016-06-05T00:50:53.724Z,19.4
2016-06-05T00:51:03.724Z,19.4
2016-06-05T00:51:13.724Z,19.4
2016-06-05T00:51:23.708Z,19.4
2016-06-05T00:51:33.708Z,19.4
2016-06-05T00:51:43.708Z,19.4
2016-06-05T00:51:53.695Z,19.4
2016-06-05T00:52:03.695Z,19.4
2016-06-05T00:52:13.695Z,19.4
2016-06-05T00:52:23.695Z,19.4
2016-06-05T00:52:33.695Z,19.4
2016-06-05T00:52:43.679Z,19.4
2016-06-05T00:52:53.682Z,19.4
2016-06-05T00:53:03.667Z,19.4
2016-06-05T00:53:13.667Z,19.4
2016-06-05T00:53:23.667Z,19.4
2016-06-05T00:53:33.682Z,19.4
2016-06-05T00:53:43.651Z,19.4
2016-06-05T00:53:53.654Z,19.4
2016-06-05T00:54:03.654Z,19.4
2016-06-05T00:54:13.638Z,19.4
2016-06-05T00:54:23.638Z,19.4
2016-06-05T00:54:33.638Z,19.4
2016-06-05T00:54:43.482Z,19.4
2016-06-05T00:54:53.625Z,19.4
2016-06-05T00:55:03.468Z,19.4
2016-06-05T00:55:13.609Z,19.4
2016-06-05T00:55:23.609Z,19.4
2016-06-05T00:55:33.593Z,19.4
2016-06-05T00:55:43.593Z,19.5
2016-06-05T00:55:53.596Z,19.5
2016-06-05T00:56:03.596Z,19.5
2016-06-05T00:56:13.596Z,19.5
2016-06-05T00:56:23.581Z,19.5
2016-06-05T00:56:33.581Z,19.5
2016-06-05T00:56:43.581Z,19.4
2016-06-05T00:56:53.568Z,19.5
2016-06-05T00:57:03.584Z,19.4
2016-06-05T00:57:13.568Z,19.4
2016-06-05T00:57:23.553Z,19.4
2016-06-05T00:57:34.365Z,19.4
2016-06-05T00:57:43.678Z,19.4
2016-06-05T00:57:53.540Z,19.4
2016-06-05T00:58:03.587Z,19.4
2016-06-05T00:58:13.415Z,19.4
2016-06-05T00:58:23.306Z,19.4
2016-06-05T00:58:33.384Z,19.4
2016-06-05T00:58:44.087Z,19.4
2016-06-05T00:58:53.542Z,19.4
2016-06-05T00:59:03.526Z,19.4
2016-06-05T00:59:13.511Z,19.4
2016-06-05T00:59:23.511Z,19.4
2016-06-05T00:59:33.495Z,19.4
2016-06-05T00:59:43.495Z,19.4
2016-06-05T00:59:53.498Z,19.4
2016-06-05T01:00:03.498Z,19.4
2016-06-05T01:00:13.482Z,19.4
2016-06-05T01:00:23.482Z,19.4
2016-06-05T01:00:33.482Z,19.4
2016-06-05T01:00:43.467Z,19.4
2016-06-05T01:00:53.454Z,19.4
2016-06-05T01:01:03.470Z,19.4
2016-06-05T01:01:13.454Z,19.4
2016-06-05T01:01:23.454Z,19.4
2016-06-05T01:01:33.454Z,19.4
2016-06-05T01:01:43.439Z,19.4
2016-06-05T01:01:53.441Z,19.4
2016-06-05T01:02:03.425Z,19.4
2016-06-05T01:02:13.269Z,19.4
2016-06-05T01:02:23.425Z,19.4
2016-06-05T01:02:33.409Z,19.4
2016-06-05T01:02:43.409Z,19.4
2016-06-05T01:02:53.411Z,19.4
2016-06-05T01:03:03.396Z,19.4
2016-06-05T01:03:13.396Z,19.4
2016-06-05T01:03:23.396Z,19.4
2016-06-05T01:03:33.396Z,19.4
2016-06-05T01:03:43.380Z,19.4
2016-06-05T01:03:53.400Z,19.4
2016-06-05T01:04:03.384Z,19.4
2016-06-05T01:04:13.384Z,19.4
2016-06-05T01:04:23.368Z,19.4
2016-06-05T01:04:33.368Z,19.4
2016-06-05T01:04:43.368Z,19.4
2016-06-05T01:04:53.355Z,19.4
2016-06-05T01:05:03.370Z,19.4
2016-06-05T01:05:13.370Z,19.4
2016-06-05T01:05:23.339Z,19.4
2016-06-05T01:05:33.339Z,19.4
2016-06-05T01:05:43.339Z,19.4
2016-06-05T01:05:53.327Z,19.4
2016-06-05T01:06:03.327Z,19.4
2016-06-05T01:06:13.327Z,19.4
2016-06-05T01:06:23.311Z,19.4
2016-06-05T01:06:33.342Z,19.4
2016-06-05T01:06:43.295Z,19.4
2016-06-05T01:06:53.298Z,19.4
2016-06-05T01:07:03.314Z,19.4
2016-06-05T01:07:13.298Z,19.4
2016-06-05T01:07:23.298Z,19.4
2016-06-05T01:07:33.298Z,19.4
2016-06-05T01:07:43.267Z,19.4
2016-06-05T01:07:53.269Z,19.4
2016-06-05T01:08:03.300Z,19.4
2016-06-05T01:08:13.269Z,19.3
2016-06-05T01:08:23.285Z,19.3
2016-06-05T01:08:33.253Z,19.3
2016-06-05T01:08:43.269Z,19.3
2016-06-05T01:08:53.256Z,19.3
2016-06-05T01:09:03.241Z,19.3
2016-06-05T01:09:13.225Z,19.3
2016-06-05T01:09:23.241Z,19.3
2016-06-05T01:09:33.241Z,19.3
2016-06-05T01:09:43.225Z,19.3
2016-06-05T01:09:53.228Z,19.3
2016-06-05T01:10:03.213Z,19.3
2016-06-05T01:10:13.213Z,19.3
2016-06-05T01:10:23.213Z,19.3
2016-06-05T01:10:33.197Z,19.3
2016-06-05T01:10:43.197Z,19.3
2016-06-05T01:10:53.200Z,19.3
2016-06-05T01:11:03.184Z,19.3
2016-06-05T01:11:13.184Z,19.3
2016-06-05T01:11:23.028Z,19.3
2016-06-05T01:11:33.169Z,19.3
2016-06-05T01:11:43.184Z,19.3
2016-06-05T01:11:53.171Z,19.3
2016-06-05T01:12:03.171Z,19.3
2016-06-05T01:12:13.171Z,19.3
2016-06-05T01:12:23.155Z,19.3
2016-06-05T01:12:33.905Z,19.3
2016-06-05T01:12:44.608Z,19.2
2016-06-05T01:12:53.564Z,19.3
2016-06-05T01:13:03.627Z,19.2
2016-06-05T01:13:13.924Z,19.2
2016-06-05T01:13:22.986Z,19.2
2016-06-05T01:13:33.455Z,19.2
2016-06-05T01:13:43.017Z,19.2
2016-06-05T01:13:52.973Z,19.2
2016-06-05T01:14:03.129Z,19.2
2016-06-05T01:14:13.098Z,19.2
2016-06-05T01:14:23.098Z,19.2
2016-06-05T01:14:33.144Z,19.2
2016-06-05T01:14:43.082Z,19.2
2016-06-05T01:14:53.085Z,19.2
2016-06-05T01:15:03.085Z,19.2
2016-06-05T01:15:13.085Z,19.2
2016-06-05T01:15:23.085Z,19.2
2016-06-05T01:15:33.069Z,19.2
2016-06-05T01:15:43.054Z,19.2
2016-06-05T01:15:53.057Z,19.2
2016-06-05T01:16:03.057Z,19.2
2016-06-05T01:16:13.057Z,19.2
2016-06-05T01:16:23.072Z,19.2
2016-06-05T01:16:33.041Z,19.2
2016-06-05T01:16:42.885Z,19.2
2016-06-05T01:16:53.043Z,19.2
2016-06-05T01:17:03.027Z,19.2
2016-06-05T01:17:13.027Z,19.2
2016-06-05T01:17:23.027Z,19.2
2016-06-05T01:17:33.012Z,19.2
2016-06-05T01:17:43.012Z,19.1
2016-06-05T01:17:53.015Z,19.1
2016-06-05T01:18:02.999Z,19.1
2016-06-05T01:18:13.015Z,19.1
2016-06-05T01:18:22.999Z,19.1
2016-06-05T01:18:32.984Z,19.1
2016-06-05T01:18:42.984Z,19.1
2016-06-05T01:18:52.830Z,19.1
2016-06-05T01:19:02.987Z,19.1
2016-06-05T01:19:12.971Z,19.1
2016-06-05T01:19:22.971Z,19.1
2016-06-05T01:19:32.971Z,19.1
2016-06-05T01:19:42.955Z,19.1
2016-06-05T01:19:52.849Z,19.1
2016-06-05T01:20:02.958Z,19.1
2016-06-05T01:20:12.943Z,19.1
2016-06-05T01:20:22.943Z,19.1
2016-06-05T01:20:32.943Z,19.1
2016-06-05T01:20:42.927Z,19.1
2016-06-05T01:20:52.930Z,19.1
2016-06-05T01:21:02.914Z,19.1
2016-06-05T01:21:12.914Z,19.1
2016-06-05T01:21:22.914Z,19.1
2016-06-05T01:21:32.914Z,19.1
2016-06-05T01:21:42.899Z,19.1
2016-06-05T01:21:52.901Z,19.1
2016-06-05T01:22:02.916Z,19.1
2016-06-05T01:22:12.901Z,19.1
2016-06-05T01:22:22.885Z,19.1
2016-06-05T01:22:32.885Z,19.1
2016-06-05T01:22:42.870Z,19.1
2016-06-05T01:22:52.888Z,19.1
2016-06-05T01:23:02.873Z,19.1
2016-06-05T01:23:12.857Z,19.1
2016-06-05T01:23:22.857Z,19.1
2016-06-05T01:23:32.857Z,19.1
2016-06-05T01:23:42.873Z,19.1
2016-06-05T01:23:52.843Z,19.1
2016-06-05T01:24:02.843Z,19
2016-06-05T01:24:12.843Z,19.1
2016-06-05T01:24:22.687Z,19.1
2016-06-05T01:24:32.828Z,19
2016-06-05T01:24:42.828Z,19
2016-06-05T01:24:52.815Z,19
2016-06-05T01:25:02.815Z,19.1
2016-06-05T01:25:12.815Z,19
2016-06-05T01:25:22.815Z,19
2016-06-05T01:25:32.815Z,19
2016-06-05T01:25:42.784Z,19
2016-06-05T01:25:52.787Z,19
2016-06-05T01:26:02.802Z,19
2016-06-05T01:26:12.771Z,19
2016-06-05T01:26:22.787Z,19
2016-06-05T01:26:32.771Z,19
2016-06-05T01:26:42.771Z,19
2016-06-05T01:26:52.789Z,19
2016-06-05T01:27:02.758Z,19
2016-06-05T01:27:12.758Z,19
2016-06-05T01:27:22.758Z,19
2016-06-05T01:27:33.539Z,19
2016-06-05T01:27:43.258Z,19
2016-06-05T01:27:52.964Z,19
2016-06-05T01:28:02.745Z,19
2016-06-05T01:28:13.620Z,19
2016-06-05T01:28:22.729Z,19
2016-06-05T01:28:32.589Z,19
2016-06-05T01:29:02.904Z,19
2016-06-05T01:29:13.060Z,19
2016-06-05T01:29:23.060Z,19
2016-06-05T01:29:33.060Z,19
2016-06-05T01:29:43.045Z,19
2016-06-05T01:29:53.047Z,19
2016-06-05T01:30:03.031Z,19
2016-06-05T01:30:13.031Z,19
2016-06-05T01:30:23.016Z,19
2016-06-05T01:30:33.031Z,19
2016-06-05T01:30:43.031Z,19
2016-06-05T01:30:53.020Z,19
2016-06-05T01:31:03.004Z,19
2016-06-05T01:31:13.035Z,19
2016-06-05T01:31:23.004Z,19
2016-06-05T01:31:33.004Z,19
2016-06-05T01:31:42.988Z,19
2016-06-05T01:31:52.990Z,19
2016-06-05T01:32:03.006Z,19
2016-06-05T01:32:12.975Z,19
2016-06-05T01:32:22.975Z,19
2016-06-05T01:32:32.975Z,19
2016-06-05T01:32:42.959Z,19
2016-06-05T01:32:52.977Z,19
2016-06-05T01:33:02.961Z,19
2016-06-05T01:33:12.945Z,19
2016-06-05T01:33:22.961Z,19
2016-06-05T01:33:32.789Z,19
2016-06-05T01:33:42.945Z,19
2016-06-05T01:33:52.933Z,19
2016-06-05T01:34:02.933Z,19
2016-06-05T01:34:12.933Z,19
2016-06-05T01:34:22.948Z,19
2016-06-05T01:34:32.933Z,19
2016-06-05T01:34:42.902Z,19
2016-06-05T01:34:52.920Z,19
2016-06-05T01:35:02.905Z,19
2016-06-05T01:35:12.889Z,19
2016-06-05T01:35:22.905Z,19
2016-06-05T01:35:32.889Z,19
2016-06-05T01:35:42.873Z,19
2016-06-05T01:35:52.876Z,19
2016-06-05T01:36:02.861Z,19
2016-06-05T01:36:12.876Z,19
2016-06-05T01:36:22.861Z,19
2016-06-05T01:36:32.861Z,19
2016-06-05T01:36:42.861Z,19
2016-06-05T01:36:52.848Z,19
2016-06-05T01:37:02.848Z,19
2016-06-05T01:37:12.864Z,19
2016-06-05T01:37:22.832Z,19
2016-06-05T01:37:32.692Z,19
2016-06-05T01:37:42.832Z,19
2016-06-05T01:37:52.819Z,19
2016-06-05T01:38:02.834Z,19
2016-06-05T01:38:12.819Z,19
2016-06-05T01:38:22.803Z,19
2016-06-05T01:38:32.803Z,19
2016-06-05T01:38:42.803Z,19
2016-06-05T01:38:52.790Z,19
2016-06-05T01:39:02.790Z,19
2016-06-05T01:39:12.790Z,19
2016-06-05T01:39:22.774Z,19
2016-06-05T01:39:32.790Z,19
2016-06-05T01:39:42.774Z,19
2016-06-05T01:39:52.762Z,19
2016-06-05T01:40:02.762Z,18.9
2016-06-05T01:40:12.762Z,18.9
2016-06-05T01:40:22.762Z,18.9
2016-06-05T01:40:32.747Z,18.9
2016-06-05T01:40:42.731Z,18.9
2016-06-05T01:40:52.749Z,18.9
2016-06-05T01:41:02.733Z,18.9
2016-06-05T01:41:12.733Z,18.9
2016-06-05T01:41:22.733Z,18.9
2016-06-05T01:41:32.733Z,18.9
2016-06-05T01:41:42.717Z,18.9
2016-06-05T01:41:52.720Z,18.9
2016-06-05T01:42:02.705Z,18.9
2016-06-05T01:42:12.705Z,18.9
2016-06-05T01:42:22.705Z,18.9
2016-06-05T01:42:32.549Z,18.9
2016-06-05T01:42:43.267Z,18.9
2016-06-05T01:42:53.755Z,18.9
2016-06-05T01:43:02.536Z,18.9
2016-06-05T01:43:13.208Z,18.9
2016-06-05T01:43:22.880Z,18.9
2016-06-05T01:43:33.364Z,18.9
2016-06-05T01:43:44.208Z,18.9
2016-06-05T01:43:52.664Z,18.9
2016-06-05T01:44:02.664Z,18.9
2016-06-05T01:44:12.648Z,18.9
2016-06-05T01:44:22.648Z,18.9
2016-06-05T01:44:32.648Z,18.9
2016-06-05T01:44:42.633Z,18.9
2016-06-05T01:44:52.635Z,18.9
2016-06-05T01:45:02.635Z,18.9
2016-06-05T01:45:12.635Z,18.9
2016-06-05T01:45:22.463Z,18.9
2016-06-05T01:45:32.635Z,18.9
2016-06-05T01:45:42.603Z,18.9
2016-06-05T01:45:52.621Z,18.9
2016-06-05T01:46:02.605Z,18.9
2016-06-05T01:46:12.605Z,18.9
2016-06-05T01:46:22.590Z,18.9
2016-06-05T01:46:32.574Z,18.9
2016-06-05T01:46:42.434Z,18.9
2016-06-05T01:46:52.593Z,18.9
2016-06-05T01:47:02.577Z,18.9
2016-06-05T01:47:12.577Z,18.9
2016-06-05T01:47:22.562Z,18.9
2016-06-05T01:47:32.562Z,18.9
2016-06-05T01:47:42.390Z,18.9
2016-06-05T01:47:52.393Z,18.9
2016-06-05T01:48:02.565Z,18.9
2016-06-05T01:48:12.549Z,18.9
2016-06-05T01:48:22.533Z,18.9
2016-06-05T01:48:32.533Z,18.8
2016-06-05T01:48:42.533Z,18.8
2016-06-05T01:48:52.520Z,18.8
2016-06-05T01:49:02.520Z,18.8
2016-06-05T01:49:12.520Z,18.9
2016-06-05T01:49:22.504Z,18.8
2016-06-05T01:49:32.504Z,18.8
2016-06-05T01:49:42.504Z,18.8
2016-06-05T01:49:52.492Z,18.8
2016-06-05T01:50:02.492Z,18.8
2016-06-05T01:50:12.336Z,18.8
2016-06-05T01:50:22.477Z,18.8
2016-06-05T01:50:32.477Z,18.8
2016-06-05T01:50:42.477Z,18.8
2016-06-05T01:50:52.463Z,18.8
2016-06-05T01:51:02.463Z,18.8
2016-06-05T01:51:12.463Z,18.8
2016-06-05T01:51:22.463Z,18.8
2016-06-05T01:51:32.463Z,18.8
2016-06-05T01:51:42.448Z,18.8
2016-06-05T01:51:52.435Z,18.8
2016-06-05T01:52:02.435Z,18.8
2016-06-05T01:52:12.435Z,18.8
2016-06-05T01:52:22.435Z,18.8
2016-06-05T01:52:32.435Z,18.8
2016-06-05T01:52:42.419Z,18.8
2016-06-05T01:52:52.421Z,18.8
2016-06-05T01:53:02.421Z,18.8
2016-06-05T01:53:12.406Z,18.8
2016-06-05T01:53:22.421Z,18.8
2016-06-05T01:53:32.390Z,18.8
2016-06-05T01:53:42.390Z,18.8
2016-06-05T01:53:52.409Z,18.8
2016-06-05T01:54:02.377Z,18.8
2016-06-05T01:54:12.377Z,18.8
2016-06-05T01:54:22.221Z,18.8
2016-06-05T01:54:32.377Z,18.8
2016-06-05T01:54:42.377Z,18.8
2016-06-05T01:54:52.365Z,18.8
2016-06-05T01:55:02.380Z,18.8
2016-06-05T01:55:12.365Z,18.8
2016-06-05T01:55:22.193Z,18.8
2016-06-05T01:55:32.349Z,18.8
2016-06-05T01:55:42.334Z,18.8
2016-06-05T01:55:52.180Z,18.8
2016-06-05T01:56:02.180Z,18.8
2016-06-05T01:56:12.337Z,18.8
2016-06-05T01:56:22.321Z,18.7
2016-06-05T01:56:32.321Z,18.7
2016-06-05T01:56:42.305Z,18.7
2016-06-05T01:56:52.323Z,18.7
2016-06-05T01:57:02.307Z,18.7
2016-06-05T01:57:12.307Z,18.7
2016-06-05T01:57:22.307Z,18.7
2016-06-05T01:57:32.604Z,18.7
2016-06-05T01:57:42.573Z,18.7
2016-06-05T01:57:52.872Z,18.7
2016-06-05T01:58:03.012Z,18.7
2016-06-05T01:58:12.294Z,18.7
2016-06-05T01:58:22.262Z,18.7
2016-06-05T01:58:32.622Z,18.7
2016-06-05T01:58:42.434Z,18.7
2016-06-05T01:58:52.109Z,18.7
2016-06-05T01:59:02.250Z,18.7
2016-06-05T01:59:12.234Z,18.7
2016-06-05T01:59:22.265Z,18.7
2016-06-05T01:59:32.234Z,18.7
2016-06-05T01:59:42.234Z,18.7
2016-06-05T01:59:52.223Z,18.7
2016-06-05T02:00:02.238Z,18.7
2016-06-05T02:00:12.223Z,18.7
2016-06-05T02:00:22.207Z,18.7
2016-06-05T02:00:32.207Z,18.7
2016-06-05T02:00:42.207Z,18.7
2016-06-05T02:00:52.191Z,18.7
2016-06-05T02:01:02.193Z,18.7
2016-06-05T02:01:12.193Z,18.7
2016-06-05T02:01:22.178Z,18.7
2016-06-05T02:01:32.178Z,18.7
2016-06-05T02:01:42.178Z,18.7
2016-06-05T02:01:52.162Z,18.7
2016-06-05T02:02:02.181Z,18.7
2016-06-05T02:02:12.181Z,18.7
2016-06-05T02:02:22.149Z,18.7
2016-06-05T02:02:32.149Z,18.7
2016-06-05T02:02:42.149Z,18.7
2016-06-05T02:02:52.149Z,18.7
2016-06-05T02:03:02.152Z,18.7
2016-06-05T02:03:12.137Z,18.7
2016-06-05T02:03:22.137Z,18.7
2016-06-05T02:03:32.152Z,18.7
2016-06-05T02:03:42.121Z,18.7
2016-06-05T02:03:52.121Z,18.7
2016-06-05T02:04:02.123Z,18.7
2016-06-05T02:04:12.108Z,18.7
2016-06-05T02:04:22.108Z,18.7
2016-06-05T02:04:32.092Z,18.7
2016-06-05T02:04:42.108Z,18.7
2016-06-05T02:04:52.092Z,18.7
2016-06-05T02:05:02.095Z,18.7
2016-06-05T02:05:12.095Z,18.7
2016-06-05T02:05:22.079Z,18.7
2016-06-05T02:05:32.064Z,18.7
2016-06-05T02:05:42.064Z,18.7
2016-06-05T02:05:52.079Z,18.7
2016-06-05T02:06:02.066Z,18.6
2016-06-05T02:06:12.066Z,18.7
2016-06-05T02:06:22.050Z,18.7
2016-06-05T02:06:32.050Z,18.6
2016-06-05T02:06:42.050Z,18.6
2016-06-05T02:06:52.034Z,18.7
2016-06-05T02:07:02.037Z,18.6
2016-06-05T02:07:12.053Z,18.6
2016-06-05T02:07:22.037Z,18.6
2016-06-05T02:07:32.037Z,18.6
2016-06-05T02:07:42.022Z,18.6
2016-06-05T02:07:52.037Z,18.6
2016-06-05T02:08:02.009Z,18.6
2016-06-05T02:08:12.009Z,18.6
2016-06-05T02:08:21.994Z,18.6
2016-06-05T02:08:31.994Z,18.6
2016-06-05T02:08:41.994Z,18.6
2016-06-05T02:08:51.978Z,18.6
2016-06-05T02:09:01.980Z,18.6
2016-06-05T02:09:11.964Z,18.6
2016-06-05T02:09:21.824Z,18.6
2016-06-05T02:09:31.964Z,18.6
2016-06-05T02:09:41.964Z,18.6
2016-06-05T02:09:51.964Z,18.6
2016-06-05T02:10:01.967Z,18.6
2016-06-05T02:10:11.952Z,18.6
2016-06-05T02:10:21.952Z,18.6
2016-06-05T02:10:31.936Z,18.6
2016-06-05T02:10:41.936Z,18.6
2016-06-05T02:10:51.920Z,18.6
2016-06-05T02:11:01.923Z,18.6
2016-06-05T02:11:11.923Z,18.6
2016-06-05T02:11:21.923Z,18.6
2016-06-05T02:11:31.908Z,18.6
2016-06-05T02:11:41.892Z,18.6
2016-06-05T02:11:51.908Z,18.6
2016-06-05T02:12:01.895Z,18.6
2016-06-05T02:12:11.895Z,18.6
2016-06-05T02:12:21.739Z,18.6
2016-06-05T02:12:31.583Z,18.6
2016-06-05T02:12:42.723Z,18.6
2016-06-05T02:12:51.770Z,18.6
2016-06-05T02:13:02.257Z,18.6
2016-06-05T02:13:12.725Z,18.6
2016-06-05T02:13:22.038Z,18.6
2016-06-05T02:13:31.913Z,18.6
2016-06-05T02:13:42.397Z,18.6
2016-06-05T02:13:51.928Z,18.6
2016-06-05T02:14:01.869Z,18.6
2016-06-05T02:14:11.838Z,18.6
2016-06-05T02:14:21.838Z,18.6
2016-06-05T02:14:31.853Z,18.6